Nautical Loredana — D5HY8 — position and weather

sailwx.info

Track history (hours):
 
Tides and Currents Weather Stations Pressure Air Temp Water Temp Dewpoint Dewpoint Depression Visibility Wind Speed Wind Dir Waves Ship Positions

Nautical Loredana

Last reported at 2018-Jun-04 11:53 UTC. Time now 2018-Jun-24 22:27 UTC.
Position N 01°14' E 103°25'.
Warning: this ship's position is 20 days out of date.

Length 199 m; draft 13.2 m.

Type: Cargo ship. MMSI: 636016820.

Date/timePositionNaut miles runAvg speedWind from/ knotsBaromVisibWave heightAir tempDewpointWater temp
2018-Jun-04 11:53N 01°14' E 103°25'513.5
2018-Jun-04 11:29N 01°13' E 103°31'713.0
2018-Jun-04 10:57N 01°12' E 103°38'613.3
2018-Jun-04 10:30N 01°09' E 103°43'611.4
2018-Jun-04 10:01N 01°11' E 103°48'611.9
2018-Jun-04 09:30N 01°14' E 103°53'1 2.3
2018-Jun-04 08:57N 01°15' E 103°53'0 0.1
2018-Jun-04 08:21N 01°15' E 103°53'0 0.1
2018-Jun-04 07:57N 01°15' E 103°53'0 0.0
2018-Jun-04 06:51N 01°15' E 103°53'0 0.0
2018-Jun-04 06:24N 01°15' E 103°53'0 0.0
2018-Jun-04 05:54N 01°15' E 103°53'0 0.1
2018-Jun-04 04:59N 01°15' E 103°53'0 0.0
2018-Jun-04 04:27N 01°15' E 103°53'0 0.0
2018-Jun-04 03:59N 01°15' E 103°53'0 0.2
2018-Jun-04 03:30N 01°15' E 103°53'0 0.1
2018-Jun-04 02:48N 01°15' E 103°53'0 0.2
2018-Jun-04 02:29N 01°15' E 103°53'0 0.1
2018-Jun-04 01:59N 01°15' E 103°53'0 0.0
2018-Jun-04 01:29N 01°15' E 103°53'0 0.3
2018-Jun-04 00:59N 01°15' E 103°53'1 2.8
2018-Jun-04 00:30N 01°14' E 103°54'2 3.1
2018-Jun-04 00:00N 01°14' E 103°56'0 1.0
2018-Jun-03 23:30N 01°15' E 103°56'2 3.8
2018-Jun-03 22:59N 01°15' E 103°58'2 4.5
2018-Jun-03 22:29N 01°16' E 104°00'3 5.7
2018-Jun-03 21:59N 01°16' E 104°03'3 7.2
2018-Jun-03 21:30N 01°16' E 104°07'5 8.9
2018-Jun-03 21:00N 01°17' E 104°11'5 8.8
2018-Jun-03 20:23N 01°18' E 104°16'4 9.1
2018-Jun-03 20:00N 01°19' E 104°20'7 9.6
2018-Jun-03 19:15N 01°24' E 104°25'310.3
2018-Jun-03 18:59N 01°26' E 104°27'610.4
2018-Jun-03 18:22N 01°29' E 104°32'410.8
2018-Jun-03 17:59N 01°32' E 104°36'  
Track history (hours):
 
Tides and Currents Weather Stations Pressure Air Temp Water Temp Dewpoint Dewpoint Depression Visibility Wind Speed Wind Dir Waves Ship Positions

Nautical Loredana

Last reported at 2018-Jun-04 11:53 UTC. Time now 2018-Jun-24 22:27 UTC.
Position N 01°14' E 103°25'.
Warning: this ship's position is 20 days out of date.

Length 199 m; draft 13.2 m.

Type: Cargo ship. MMSI: 636016820.

Date/timePositionNaut miles runAvg speedWind from/ knotsBaromVisibWave heightAir tempDewpointWater temp
2018-Jun-04 11:53N 01°14' E 103°25'513.5
2018-Jun-04 11:29N 01°13' E 103°31'713.0
2018-Jun-04 10:57N 01°12' E 103°38'613.3
2018-Jun-04 10:30N 01°09' E 103°43'611.4
2018-Jun-04 10:01N 01°11' E 103°48'611.9
2018-Jun-04 09:30N 01°14' E 103°53'1 2.3
2018-Jun-04 08:57N 01°15' E 103°53'0 0.1
2018-Jun-04 08:21N 01°15' E 103°53'0 0.1
2018-Jun-04 07:57N 01°15' E 103°53'0 0.0
2018-Jun-04 06:51N 01°15' E 103°53'0 0.0
2018-Jun-04 06:24N 01°15' E 103°53'0 0.0
2018-Jun-04 05:54N 01°15' E 103°53'0 0.1
2018-Jun-04 04:59N 01°15' E 103°53'0 0.0
2018-Jun-04 04:27N 01°15' E 103°53'0 0.0
2018-Jun-04 03:59N 01°15' E 103°53'0 0.2
2018-Jun-04 03:30N 01°15' E 103°53'0 0.1
2018-Jun-04 02:48N 01°15' E 103°53'0 0.2
2018-Jun-04 02:29N 01°15' E 103°53'0 0.1
2018-Jun-04 01:59N 01°15' E 103°53'0 0.0
2018-Jun-04 01:29N 01°15' E 103°53'0 0.3
2018-Jun-04 00:59N 01°15' E 103°53'1 2.8
2018-Jun-04 00:30N 01°14' E 103°54'2 3.1
2018-Jun-04 00:00N 01°14' E 103°56'0 1.0
2018-Jun-03 23:30N 01°15' E 103°56'2 3.8
2018-Jun-03 22:59N 01°15' E 103°58'2 4.5
2018-Jun-03 22:29N 01°16' E 104°00'3 5.7
2018-Jun-03 21:59N 01°16' E 104°03'3 7.2
2018-Jun-03 21:30N 01°16' E 104°07'5 8.9
2018-Jun-03 21:00N 01°17' E 104°11'5 8.8
2018-Jun-03 20:23N 01°18' E 104°16'4 9.1
2018-Jun-03 20:00N 01°19' E 104°20'7 9.6
2018-Jun-03 19:15N 01°24' E 104°25'310.3
2018-Jun-03 18:59N 01°26' E 104°27'610.4
2018-Jun-03 18:22N 01°29' E 104°32'410.8
2018-Jun-03 17:59N 01°32' E 104°36'  

Dump ship's entire track history